Time;durP1;ratioP1;P1;durP2;ratioP2;P2;SDS_P1;SDS_P2;PMS_P1;PMS_P2;Temp;Humidity;BMP_temperature;BMP_pressure;BME280_temperature;BME280_humidity;BME280_pressure;Samples;Min_cycle;Max_cycle;Signal;HPM_P1;HPM_P2
2021/12/10 00:00:29;;;;;;;89.07;41.17;;;0.90;99.90;;;;;;5044103;28;20925;-91
2021/12/10 00:02:55;;;;;;;78.97;43.10;;;0.90;99.90;;;;;;5044502;28;20183;-69
2021/12/10 00:05:35;;;;;;;89.00;43.17;;;0.90;99.90;;;;;;5045541;28;20249;-71
2021/12/10 00:08:01;;;;;;;83.27;41.30;;;0.90;99.90;;;;;;5034059;28;20187;-75
2021/12/10 00:10:35;;;;;;;86.43;42.53;;;0.90;99.90;;;;;;5030299;28;20206;-70
2021/12/10 00:13:02;;;;;;;80.40;39.97;;;0.80;99.90;;;;;;5025199;28;20229;-70
2021/12/10 00:15:30;;;;;;;77.23;39.20;;;0.80;99.90;;;;;;5047836;28;20316;-72
2021/12/10 00:17:59;;;;;;;81.37;43.43;;;0.80;99.90;;;;;;5041301;28;20205;-70
2021/12/10 00:20:27;;;;;;;82.60;40.77;;;0.80;99.90;;;;;;5037754;28;20255;-81
2021/12/10 00:23:05;;;;;;;80.63;41.43;;;0.80;99.90;;;;;;5037810;28;20190;-67
2021/12/10 00:25:36;;;;;;;81.07;41.00;;;0.80;99.90;;;;;;5043988;28;20197;-70
2021/12/10 00:28:15;;;;;;;83.10;41.90;;;0.80;99.90;;;;;;5029376;28;20229;-71
2021/12/10 00:30:59;;;;;;;84.07;41.93;;;0.80;99.90;;;;;;5028981;28;20237;-73
2021/12/10 00:33:26;;;;;;;75.57;41.20;;;0.90;99.90;;;;;;5029240;28;20214;-69
2021/12/10 00:35:53;;;;;;;79.47;40.83;;;0.90;99.90;;;;;;5042343;28;20260;-68
2021/12/10 00:38:21;;;;;;;87.53;41.83;;;0.90;99.90;;;;;;5048884;28;20187;-70
2021/12/10 00:40:47;;;;;;;79.90;40.70;;;0.90;99.90;;;;;;5046723;28;20268;-68
2021/12/10 00:43:12;;;;;;;76.93;42.70;;;0.70;99.90;;;;;;5034002;28;20293;-68
2021/12/10 00:45:38;;;;;;;81.00;40.40;;;0.70;99.90;;;;;;5042660;28;20664;-69
2021/12/10 00:48:04;;;;;;;80.47;41.83;;;0.70;99.90;;;;;;5058182;28;20787;-77
2021/12/10 00:50:35;;;;;;;76.50;41.33;;;0.70;99.90;;;;;;5049011;28;20257;-74
2021/12/10 00:53:01;;;;;;;77.73;41.20;;;0.80;99.90;;;;;;5033380;28;20238;-73
2021/12/10 00:55:26;;;;;;;76.97;42.47;;;0.80;99.90;;;;;;5047917;28;20227;-69
2021/12/10 00:57:56;;;;;;;77.17;41.90;;;0.90;99.90;;;;;;5032804;28;20271;-72
2021/12/10 01:00:26;;;;;;;69.33;40.17;;;1.00;99.90;;;;;;5055592;28;20205;-72
2021/12/10 01:02:53;;;;;;;76.10;41.57;;;0.90;99.90;;;;;;5046335;28;20592;-69
2021/12/10 01:05:19;;;;;;;84.73;42.13;;;0.90;99.90;;;;;;5032964;28;20196;-69
2021/12/10 01:07:45;;;;;;;85.47;42.17;;;0.90;99.90;;;;;;5028459;28;20186;-71
2021/12/10 01:10:25;;;;;;;89.17;44.90;;;0.90;99.90;;;;;;5034388;28;20196;-71
2021/12/10 01:12:54;;;;;;;78.97;42.17;;;0.90;99.90;;;;;;5045526;28;20208;-71
2021/12/10 01:23:37;;;;;;;81.70;41.53;;;0.90;99.90;;;;;;5045314;28;20222;-69
2021/12/10 01:24:31;;;;;;;83.37;42.13;;;0.80;99.90;;;;;;5031964;28;20196;-80
2021/12/10 01:27:02;;;;;;;74.13;42.57;;;0.70;99.90;;;;;;5028173;28;20716;-68
2021/12/10 01:29:34;;;;;;;81.73;41.97;;;0.80;99.90;;;;;;5038267;28;20197;-67
2021/12/10 01:32:03;;;;;;;84.33;43.03;;;0.80;99.90;;;;;;5034832;28;20214;-69
2021/12/10 01:34:29;;;;;;;80.47;41.53;;;0.80;99.90;;;;;;5044720;28;20251;-68
2021/12/10 01:36:54;;;;;;;85.30;41.53;;;0.80;99.90;;;;;;5038666;28;20232;-74
2021/12/10 01:39:24;;;;;;;81.67;41.77;;;0.80;99.90;;;;;;5041188;28;20642;-74
2021/12/10 01:41:56;;;;;;;76.93;39.90;;;0.80;99.90;;;;;;5036841;28;20568;-75
2021/12/10 01:44:30;;;;;;;84.73;43.80;;;0.80;99.90;;;;;;5038803;28;20187;-75
2021/12/10 01:47:00;;;;;;;79.10;41.87;;;0.80;99.90;;;;;;5032348;28;20238;-71
2021/12/10 01:49:26;;;;;;;78.47;39.00;;;0.80;99.90;;;;;;5051619;28;20203;-75
2021/12/10 01:51:52;;;;;;;79.20;41.33;;;0.80;99.90;;;;;;5046260;28;20317;-84
2021/12/10 01:54:27;;;;;;;70.47;37.77;;;0.80;99.90;;;;;;5035499;28;20199;-80
2021/12/10 01:56:56;;;;;;;79.00;39.27;;;0.80;99.90;;;;;;5039782;28;20294;-70
2021/12/10 01:59:26;;;;;;;72.43;39.17;;;0.90;99.90;;;;;;5055543;28;20195;-71
2021/12/10 02:01:55;;;;;;;81.40;41.97;;;0.80;99.90;;;;;;5035578;28;20230;-72
2021/12/10 02:04:23;;;;;;;71.33;37.83;;;0.80;99.90;;;;;;5045978;28;20191;-71
2021/12/10 02:06:49;;;;;;;83.93;41.37;;;0.80;99.90;;;;;;5040322;28;20202;-73
2021/12/10 02:09:15;;;;;;;76.53;39.57;;;0.70;99.90;;;;;;5047366;28;20565;-71
2021/12/10 02:11:42;;;;;;;73.73;38.80;;;0.70;99.90;;;;;;5043760;28;20200;-71
2021/12/10 02:14:08;;;;;;;72.47;39.63;;;0.60;99.90;;;;;;5048711;28;20194;-76
2021/12/10 02:16:37;;;;;;;81.17;41.97;;;0.60;99.90;;;;;;5038775;28;20884;-71
2021/12/10 02:19:05;;;;;;;73.33;39.27;;;0.70;99.90;;;;;;5039855;28;20191;-80
2021/12/10 02:21:34;;;;;;;73.90;41.63;;;0.70;99.90;;;;;;5033932;28;20340;-73
2021/12/10 02:24:00;;;;;;;80.43;38.37;;;0.70;99.90;;;;;;5044392;28;20195;-72
2021/12/10 02:26:30;;;;;;;72.27;37.80;;;0.70;99.90;;;;;;5034056;28;20211;-71
2021/12/10 02:28:56;;;;;;;74.57;38.40;;;0.70;99.90;;;;;;5053027;28;20645;-83
2021/12/10 02:31:22;;;;;;;77.17;38.00;;;0.70;99.90;;;;;;5037596;28;20206;-72
2021/12/10 02:33:47;;;;;;;76.53;41.17;;;0.70;99.90;;;;;;5053081;28;20217;-88
2021/12/10 02:36:13;;;;;;;75.57;39.57;;;0.70;99.90;;;;;;5031843;28;20198;-72
2021/12/10 02:38:41;;;;;;;73.43;39.50;;;0.80;99.90;;;;;;5033344;28;20198;-72
2021/12/10 02:41:07;;;;;;;71.97;40.10;;;0.80;99.90;;;;;;5039016;28;20282;-70
2021/12/10 02:43:32;;;;;;;76.57;40.60;;;0.80;99.90;;;;;;5049172;28;20399;-73
2021/12/10 02:45:58;;;;;;;83.20;41.17;;;0.90;99.90;;;;;;5036581;28;20229;-71
2021/12/10 02:48:25;;;;;;;70.43;39.00;;;0.90;99.90;;;;;;5044015;28;20282;-85
2021/12/10 02:50:53;;;;;;;69.83;39.70;;;1.00;99.90;;;;;;5033046;28;20214;-73
2021/12/10 02:53:24;;;;;;;84.07;40.87;;;1.00;99.90;;;;;;5047435;28;20203;-72
2021/12/10 02:55:50;;;;;;;75.87;37.90;;;1.00;99.90;;;;;;5036142;28;20216;-73
2021/12/10 02:58:16;;;;;;;70.90;38.30;;;1.00;99.90;;;;;;5043350;28;20726;-72
2021/12/10 03:00:50;;;;;;;78.57;43.00;;;1.00;99.90;;;;;;5048131;28;20742;-73
2021/12/10 03:03:16;;;;;;;78.90;41.33;;;1.00;99.90;;;;;;5029480;28;20270;-76
2021/12/10 03:05:42;;;;;;;78.10;39.60;;;1.00;99.90;;;;;;5049505;28;20334;-74
2021/12/10 03:08:07;;;;;;;67.23;39.47;;;1.00;99.90;;;;;;5034299;28;20758;-70
2021/12/10 03:10:33;;;;;;;77.50;40.13;;;1.00;99.90;;;;;;5037845;28;20209;-83
2021/12/10 03:13:00;;;;;;;67.50;41.23;;;1.00;99.90;;;;;;5037943;28;20227;-81
2021/12/10 03:15:29;;;;;;;64.73;39.80;;;1.00;99.90;;;;;;5040200;28;20237;-76
2021/12/10 03:17:58;;;;;;;76.00;38.90;;;0.90;99.90;;;;;;5046801;28;20416;-71
2021/12/10 03:20:28;;;;;;;72.37;38.20;;;0.90;99.90;;;;;;5039096;28;20199;-75
2021/12/10 03:22:53;;;;;;;72.93;36.77;;;0.90;99.90;;;;;;5034399;28;20179;-73
2021/12/10 03:25:19;;;;;;;76.00;38.63;;;0.90;99.90;;;;;;5045924;28;20843;-69
2021/12/10 03:27:45;;;;;;;70.40;39.77;;;0.90;99.90;;;;;;5032728;28;20198;-76
2021/12/10 03:30:15;;;;;;;70.47;37.53;;;1.00;99.90;;;;;;5033045;28;20666;-87
2021/12/10 03:32:42;;;;;;;70.90;39.40;;;1.00;99.90;;;;;;5029844;28;20282;-75
2021/12/10 03:35:14;;;;;;;70.60;38.90;;;0.90;99.90;;;;;;5052704;28;20195;-81
2021/12/10 03:37:41;;;;;;;59.63;35.50;;;0.90;99.90;;;;;;5031003;28;20194;-75
2021/12/10 03:40:10;;;;;;;74.27;38.20;;;0.80;99.90;;;;;;5034555;28;20182;-80
2021/12/10 03:42:36;;;;;;;64.43;35.80;;;0.80;99.90;;;;;;5046880;28;20199;-74
2021/12/10 03:45:03;;;;;;;63.60;37.13;;;0.80;99.90;;;;;;5037105;28;20186;-71
2021/12/10 03:47:29;;;;;;;70.43;39.53;;;0.80;99.90;;;;;;5047032;28;20199;-73
2021/12/10 03:49:55;;;;;;;74.43;38.03;;;0.80;99.90;;;;;;5042362;28;20196;-71
2021/12/10 03:52:20;;;;;;;67.63;36.83;;;0.70;99.90;;;;;;5033983;28;20222;-70
2021/12/10 03:54:47;;;;;;;69.20;38.87;;;0.80;99.90;;;;;;5043565;28;20188;-71
2021/12/10 03:57:12;;;;;;;75.17;39.90;;;0.80;99.90;;;;;;5044784;28;20207;-74
2021/12/10 03:59:38;;;;;;;74.10;39.63;;;0.80;99.90;;;;;;5034792;28;20199;-74
2021/12/10 04:02:07;;;;;;;68.90;37.13;;;0.80;99.90;;;;;;5046602;28;20199;-74
2021/12/10 04:04:37;;;;;;;79.17;41.40;;;0.90;99.90;;;;;;5034242;28;20198;-74
2021/12/10 04:07:08;;;;;;;74.93;37.33;;;0.90;99.90;;;;;;5022959;28;20197;-75
2021/12/10 04:09:34;;;;;;;75.67;40.80;;;0.90;99.90;;;;;;5039514;28;20272;-75
2021/12/10 04:12:00;;;;;;;70.00;40.67;;;0.90;99.90;;;;;;5043448;28;20700;-75
2021/12/10 04:14:25;;;;;;;75.57;39.70;;;1.00;99.90;;;;;;5034893;28;20189;-74
2021/12/10 04:16:56;;;;;;;76.07;39.97;;;0.90;99.90;;;;;;5050763;28;20181;-75
2021/12/10 04:19:26;;;;;;;73.67;37.33;;;0.90;99.90;;;;;;5025695;28;20156;-73
2021/12/10 04:21:56;;;;;;;74.30;40.17;;;0.80;99.90;;;;;;5037379;28;20535;-74
2021/12/10 04:24:24;;;;;;;77.23;38.33;;;0.80;99.90;;;;;;5034096;28;20191;-77
2021/12/10 04:26:51;;;;;;;77.00;39.57;;;0.70;99.90;;;;;;5045066;28;20211;-72
2021/12/10 04:29:20;;;;;;;81.47;41.17;;;0.70;99.90;;;;;;5030797;28;20194;-73
2021/12/10 04:31:47;;;;;;;73.40;39.27;;;0.70;99.90;;;;;;5040894;28;20219;-71
2021/12/10 04:34:12;;;;;;;77.27;38.13;;;0.80;99.90;;;;;;5032231;28;20281;-65
2021/12/10 04:36:38;;;;;;;77.63;41.03;;;0.70;99.90;;;;;;5045371;28;20335;-65
2021/12/10 04:39:05;;;;;;;69.23;36.97;;;0.70;99.90;;;;;;5041231;28;20205;-75
2021/12/10 04:41:31;;;;;;;70.03;39.37;;;0.70;99.90;;;;;;5034216;28;20183;-72
2021/12/10 04:43:56;;;;;;;79.10;41.83;;;0.70;99.90;;;;;;5038971;28;20209;-65
2021/12/10 04:46:22;;;;;;;86.87;40.50;;;0.80;99.90;;;;;;5053905;28;20194;-64
2021/12/10 04:48:52;;;;;;;76.43;41.63;;;0.70;99.90;;;;;;5016595;28;20866;-65
2021/12/10 04:51:23;;;;;;;75.50;39.40;;;0.70;99.90;;;;;;5027460;28;20665;-66
2021/12/10 04:53:49;;;;;;;80.27;38.90;;;0.80;99.90;;;;;;5032691;28;21002;-65
2021/12/10 04:56:15;;;;;;;83.33;42.07;;;0.80;99.90;;;;;;5037088;28;20216;-65
2021/12/10 04:58:40;;;;;;;81.33;39.40;;;0.80;99.90;;;;;;5029930;28;20195;-65
2021/12/10 05:01:06;;;;;;;80.90;42.90;;;0.80;99.90;;;;;;5039915;28;20272;-65
2021/12/10 05:03:32;;;;;;;74.50;40.93;;;0.80;99.90;;;;;;5039149;28;20714;-67
2021/12/10 05:06:02;;;;;;;84.43;43.60;;;0.80;99.90;;;;;;5041169;28;20251;-65
2021/12/10 05:08:33;;;;;;;76.27;41.53;;;0.90;99.90;;;;;;5040031;28;20210;-64
2021/12/10 05:11:00;;;;;;;79.43;41.20;;;0.90;99.90;;;;;;5033011;28;20194;-64
2021/12/10 05:13:26;;;;;;;85.17;42.90;;;0.90;99.90;;;;;;5038902;28;20308;-64
2021/12/10 05:15:58;;;;;;;82.63;42.00;;;0.90;99.90;;;;;;5038898;28;20238;-65
2021/12/10 05:18:26;;;;;;;84.70;40.77;;;0.90;99.90;;;;;;5032050;28;20200;-66
2021/12/10 05:20:52;;;;;;;81.80;41.47;;;1.00;99.90;;;;;;5042328;28;20191;-65
2021/12/10 05:23:19;;;;;;;79.27;38.60;;;1.00;99.90;;;;;;5036809;28;20201;-66
2021/12/10 05:25:45;;;;;;;77.60;38.90;;;1.00;99.90;;;;;;5040574;28;20195;-65
2021/12/10 05:28:11;;;;;;;81.07;40.53;;;1.00;99.90;;;;;;5038610;28;20213;-66
2021/12/10 05:30:37;;;;;;;86.40;42.17;;;1.00;99.90;;;;;;5036503;28;20197;-66
2021/12/10 05:33:04;;;;;;;78.47;39.57;;;1.00;99.90;;;;;;5039281;28;20578;-66
2021/12/10 05:35:32;;;;;;;80.07;40.97;;;1.00;99.90;;;;;;5042488;28;20214;-64
2021/12/10 05:37:58;;;;;;;74.00;38.43;;;1.00;99.90;;;;;;5035886;28;20218;-65
2021/12/10 05:40:25;;;;;;;76.73;38.47;;;1.00;99.90;;;;;;5041949;28;20194;-65
2021/12/10 05:42:51;;;;;;;78.57;39.80;;;1.00;99.90;;;;;;5036258;28;20232;-65
2021/12/10 05:45:20;;;;;;;74.50;38.27;;;0.90;99.90;;;;;;5039356;28;20685;-65
2021/12/10 05:47:46;;;;;;;71.73;39.37;;;0.90;99.90;;;;;;5034613;28;20290;-64
2021/12/10 05:50:15;;;;;;;71.23;38.47;;;0.90;99.90;;;;;;5038222;28;20651;-65
2021/12/10 05:52:41;;;;;;;67.87;39.80;;;0.80;99.90;;;;;;5035086;28;20303;-66
2021/12/10 05:55:08;;;;;;;76.03;40.70;;;0.80;99.90;;;;;;5032266;28;20214;-64
2021/12/10 05:57:33;;;;;;;85.63;41.93;;;0.80;99.90;;;;;;5051387;28;20288;-66
2021/12/10 05:59:59;;;;;;;86.10;40.90;;;0.80;99.90;;;;;;5032586;28;20652;-66
2021/12/10 06:02:24;;;;;;;73.90;38.37;;;0.80;99.90;;;;;;5056492;28;20195;-66
2021/12/10 06:04:50;;;;;;;80.40;40.13;;;0.80;99.90;;;;;;5039571;28;20348;-65
2021/12/10 06:07:16;;;;;;;79.77;43.13;;;0.80;99.90;;;;;;5055911;28;20255;-66
2021/12/10 06:09:41;;;;;;;77.37;41.43;;;0.80;99.90;;;;;;5045514;28;20180;-66
2021/12/10 06:12:07;;;;;;;78.53;41.23;;;0.80;99.90;;;;;;5048080;28;20674;-66
2021/12/10 06:14:33;;;;;;;82.47;41.73;;;0.90;99.90;;;;;;5038893;28;20193;-66
2021/12/10 06:16:59;;;;;;;87.03;43.03;;;0.90;99.90;;;;;;5050629;28;20717;-66
2021/12/10 06:19:25;;;;;;;81.17;43.47;;;0.90;99.90;;;;;;5040333;28;20215;-65
2021/12/10 06:21:52;;;;;;;82.10;43.70;;;0.90;99.90;;;;;;5039065;28;20192;-65
2021/12/10 06:24:17;;;;;;;83.93;43.27;;;1.00;99.90;;;;;;5034267;28;20706;-65
2021/12/10 06:26:43;;;;;;;80.30;41.87;;;1.00;99.90;;;;;;5055220;28;20191;-66
2021/12/10 06:29:10;;;;;;;85.70;42.43;;;1.00;99.90;;;;;;5026939;28;20230;-66
2021/12/10 06:31:36;;;;;;;79.90;42.00;;;1.10;99.90;;;;;;5055627;28;20190;-66
2021/12/10 06:34:03;;;;;;;85.97;43.47;;;1.00;99.90;;;;;;5030903;28;20288;-66
2021/12/10 06:36:29;;;;;;;83.63;42.27;;;1.00;99.90;;;;;;5052909;28;20225;-65
2021/12/10 06:38:55;;;;;;;87.63;43.73;;;1.10;99.90;;;;;;5037612;28;20545;-65
2021/12/10 06:41:21;;;;;;;84.97;41.37;;;1.00;99.90;;;;;;5043439;28;20197;-66
2021/12/10 06:43:47;;;;;;;89.50;44.40;;;1.00;99.90;;;;;;5037587;28;20898;-66
2021/12/10 06:46:13;;;;;;;81.90;41.53;;;1.00;99.90;;;;;;5041573;28;20203;-66
2021/12/10 06:48:39;;;;;;;87.67;39.43;;;0.90;99.90;;;;;;5039520;28;20576;-65
2021/12/10 06:51:10;;;;;;;81.17;43.73;;;0.90;99.90;;;;;;5052015;28;20199;-65
2021/12/10 06:53:39;;;;;;;86.77;42.30;;;0.90;99.90;;;;;;5024826;28;20207;-66
2021/12/10 06:56:05;;;;;;;89.03;44.77;;;0.90;99.90;;;;;;5056176;28;20661;-64
2021/12/10 06:58:33;;;;;;;92.77;45.20;;;0.90;99.90;;;;;;5035562;28;20511;-64
2021/12/10 07:01:11;;;;;;;94.70;47.70;;;0.90;99.90;;;;;;5052747;28;20284;-64
2021/12/10 07:03:37;;;;;;;87.93;43.97;;;0.80;99.90;;;;;;5030033;28;20207;-64
2021/12/10 07:06:04;;;;;;;88.53;44.00;;;0.70;99.90;;;;;;5057040;28;20658;-65
2021/12/10 07:08:31;;;;;;;98.93;46.40;;;0.70;99.90;;;;;;5038438;28;20269;-67
2021/12/10 07:10:57;;;;;;;91.70;48.50;;;0.70;99.90;;;;;;5052095;28;20217;-65
2021/12/10 07:13:23;;;;;;;106.17;46.80;;;0.70;99.90;;;;;;5033832;28;20339;-67
2021/12/10 07:15:50;;;;;;;92.13;42.90;;;0.80;99.90;;;;;;5061504;28;20599;-67
2021/12/10 07:18:19;;;;;;;87.27;42.30;;;0.80;99.90;;;;;;5042074;28;20204;-66
2021/12/10 07:20:45;;;;;;;96.83;46.90;;;0.80;99.90;;;;;;5057361;28;20197;-66
2021/12/10 07:23:11;;;;;;;82.90;45.00;;;0.80;99.90;;;;;;5040690;28;20210;-65
2021/12/10 07:25:37;;;;;;;98.47;47.37;;;0.80;99.90;;;;;;5051409;28;20195;-65
2021/12/10 07:28:03;;;;;;;106.20;50.03;;;0.80;99.90;;;;;;5040496;28;20209;-66
2021/12/10 07:30:29;;;;;;;89.33;47.47;;;0.90;99.90;;;;;;5056227;28;20268;-66
2021/12/10 07:32:56;;;;;;;103.67;47.37;;;0.90;99.90;;;;;;5044741;28;20213;-64
2021/12/10 07:35:22;;;;;;;93.10;44.70;;;0.80;99.90;;;;;;5053556;28;20213;-65
2021/12/10 07:37:48;;;;;;;95.43;46.33;;;0.80;99.90;;;;;;5048363;28;20589;-65
2021/12/10 07:40:18;;;;;;;90.97;44.93;;;0.90;99.90;;;;;;5043627;28;20207;-65
2021/12/10 07:42:43;;;;;;;88.33;45.00;;;0.90;99.90;;;;;;5053102;28;20206;-66
2021/12/10 07:45:10;;;;;;;102.27;47.73;;;0.90;99.90;;;;;;5054742;28;20196;-66
2021/12/10 07:47:37;;;;;;;96.60;45.93;;;1.00;99.90;;;;;;5049866;28;20209;-66
2021/12/10 07:50:11;;;;;;;98.43;44.93;;;1.00;99.90;;;;;;5032198;28;20661;-66
2021/12/10 07:52:37;;;;;;;102.90;49.33;;;1.00;99.90;;;;;;5031803;28;20220;-66
2021/12/10 07:55:06;;;;;;;97.33;47.47;;;1.00;99.90;;;;;;5032833;28;20211;-66
2021/12/10 07:57:32;;;;;;;95.97;46.57;;;0.90;99.90;;;;;;5039860;28;20272;-66
2021/12/10 07:59:58;;;;;;;99.20;47.23;;;0.90;99.90;;;;;;5043177;28;20316;-64
2021/12/10 08:02:24;;;;;;;94.60;47.70;;;0.80;99.90;;;;;;5052251;28;20290;-65
2021/12/10 08:04:49;;;;;;;91.30;46.47;;;0.80;99.90;;;;;;5043066;28;20855;-64
2021/12/10 08:07:15;;;;;;;88.90;45.03;;;1.00;99.90;;;;;;5044352;28;20206;-65
2021/12/10 08:09:42;;;;;;;101.13;48.00;;;1.00;99.90;;;;;;5044077;28;20197;-66
2021/12/10 08:12:08;;;;;;;95.67;48.20;;;1.00;99.90;;;;;;5056660;28;20226;-66
2021/12/10 08:14:34;;;;;;;99.00;48.63;;;0.90;99.90;;;;;;5039684;28;20214;-66
2021/12/10 08:16:59;;;;;;;97.43;47.17;;;0.90;99.90;;;;;;5048312;28;20181;-65
2021/12/10 08:19:25;;;;;;;88.90;47.33;;;0.90;99.90;;;;;;5029952;28;20264;-66
2021/12/10 08:21:51;;;;;;;105.20;47.97;;;0.90;99.90;;;;;;5054643;28;20191;-66
2021/12/10 08:24:16;;;;;;;110.77;50.03;;;0.90;99.90;;;;;;5033543;28;20244;-66
2021/12/10 08:26:42;;;;;;;105.23;48.80;;;1.00;99.90;;;;;;5046545;28;20217;-66
2021/12/10 08:29:08;;;;;;;100.60;47.57;;;0.90;99.90;;;;;;5036900;28;20213;-66
2021/12/10 08:31:34;;;;;;;98.97;47.13;;;1.00;99.90;;;;;;5054840;28;20198;-66
2021/12/10 08:34:00;;;;;;;100.87;47.37;;;1.00;99.90;;;;;;5035079;28;20225;-64
2021/12/10 08:36:28;;;;;;;96.53;47.60;;;1.10;99.90;;;;;;5046043;28;20199;-66
2021/12/10 08:38:54;;;;;;;92.53;47.40;;;1.10;99.90;;;;;;5040848;28;20219;-66
2021/12/10 08:41:26;;;;;;;100.87;47.70;;;1.10;99.90;;;;;;5055475;28;20193;-65
2021/12/10 08:43:53;;;;;;;87.47;47.37;;;1.00;99.90;;;;;;5040181;28;20210;-65
2021/12/10 08:46:20;;;;;;;93.73;45.43;;;1.10;99.90;;;;;;5068128;28;20567;-66
2021/12/10 08:48:48;;;;;;;99.67;49.37;;;1.00;99.90;;;;;;5034343;28;20203;-65
2021/12/10 08:51:23;;;;;;;101.87;47.27;;;1.00;99.90;;;;;;5061482;28;20242;-65
2021/12/10 08:53:49;;;;;;;99.87;47.23;;;1.10;99.90;;;;;;5027149;28;20222;-65
2021/12/10 08:56:15;;;;;;;101.93;48.77;;;1.20;99.90;;;;;;5060267;28;20203;-65
2021/12/10 08:58:41;;;;;;;89.23;44.27;;;1.20;99.90;;;;;;5041021;28;20273;-66
2021/12/10 09:01:13;;;;;;;89.00;45.50;;;1.20;99.90;;;;;;5057909;28;20841;-65
2021/12/10 09:03:39;;;;;;;99.20;46.93;;;1.10;99.90;;;;;;5034667;28;20205;-67
2021/12/10 09:06:07;;;;;;;96.03;47.40;;;1.10;99.90;;;;;;5067961;28;20193;-66
2021/12/10 09:08:33;;;;;;;93.17;48.30;;;1.20;99.90;;;;;;5033573;28;20221;-66
2021/12/10 09:11:03;;;;;;;100.80;46.60;;;1.30;99.90;;;;;;5062741;28;20201;-65
2021/12/10 09:13:28;;;;;;;106.23;46.43;;;1.30;99.90;;;;;;5026585;28;20296;-64
2021/12/10 09:15:59;;;;;;;93.33;46.57;;;1.30;99.90;;;;;;5058593;28;20307;-65
2021/12/10 09:18:25;;;;;;;91.60;46.63;;;1.30;99.90;;;;;;5026304;28;20338;-65
2021/12/10 09:20:54;;;;;;;98.97;46.57;;;1.40;99.90;;;;;;5049102;28;20714;-66
2021/12/10 09:23:23;;;;;;;88.40;44.97;;;1.30;99.90;;;;;;5043544;28;20221;-65
2021/12/10 09:25:53;;;;;;;96.33;48.47;;;1.30;99.90;;;;;;5064374;28;20216;-65
2021/12/10 09:28:19;;;;;;;95.47;47.50;;;1.40;99.90;;;;;;5040930;28;20201;-65
2021/12/10 09:30:49;;;;;;;85.17;43.83;;;1.30;99.90;;;;;;5059823;28;20670;-65
2021/12/10 09:33:15;;;;;;;90.30;45.20;;;1.30;99.90;;;;;;5044581;28;20222;-65
2021/12/10 09:35:40;;;;;;;100.57;49.13;;;1.30;99.90;;;;;;5061120;28;20202;-65
2021/12/10 09:38:06;;;;;;;95.50;46.10;;;1.40;99.90;;;;;;5043030;28;20210;-65
2021/12/10 09:40:38;;;;;;;94.73;46.23;;;1.50;99.90;;;;;;5047489;28;20199;-67
2021/12/10 09:43:05;;;;;;;101.47;46.10;;;1.50;99.90;;;;;;5026428;28;20573;-66
2021/12/10 09:45:33;;;;;;;97.33;45.70;;;1.60;99.90;;;;;;5049094;28;20212;-78
2021/12/10 09:48:00;;;;;;;100.27;47.37;;;1.50;99.90;;;;;;5045493;28;20273;-65
2021/12/10 09:50:30;;;;;;;91.20;46.07;;;1.50;99.90;;;;;;5062868;28;20230;-65
2021/12/10 09:52:59;;;;;;;93.83;45.90;;;1.50;99.90;;;;;;5046501;28;20227;-65
2021/12/10 09:55:27;;;;;;;92.07;46.83;;;1.50;99.90;;;;;;5058782;28;20209;-64
2021/12/10 09:57:53;;;;;;;85.40;45.47;;;1.50;99.90;;;;;;5050725;28;20223;-63
2021/12/10 10:00:32;;;;;;;89.17;47.20;;;1.50;99.90;;;;;;5052572;28;20301;-63
2021/12/10 10:02:57;;;;;;;94.40;46.43;;;1.50;99.90;;;;;;5034731;28;20210;-66
2021/12/10 10:05:27;;;;;;;94.47;47.07;;;1.40;99.90;;;;;;5062125;28;20206;-65
2021/12/10 10:07:56;;;;;;;93.13;46.07;;;1.40;99.90;;;;;;5047495;28;20225;-65
2021/12/10 10:10:23;;;;;;;90.17;45.23;;;1.40;99.90;;;;;;5054672;28;20194;-66
2021/12/10 10:12:50;;;;;;;106.80;48.77;;;1.40;99.90;;;;;;5055028;28;20211;-66
2021/12/10 10:15:20;;;;;;;97.17;47.07;;;1.40;99.90;;;;;;5058484;28;20230;-66
2021/12/10 10:17:47;;;;;;;98.73;48.73;;;1.40;99.90;;;;;;5038615;28;20214;-66
2021/12/10 10:20:15;;;;;;;100.97;49.00;;;1.40;99.90;;;;;;5035928;28;20198;-66
2021/12/10 10:22:44;;;;;;;98.13;48.00;;;1.40;99.90;;;;;;5036098;28;20207;-66
2021/12/10 10:25:11;;;;;;;101.90;48.50;;;1.50;99.90;;;;;;5040625;28;20280;-66
2021/12/10 10:27:39;;;;;;;102.70;48.37;;;1.50;99.90;;;;;;5035003;28;20200;-65
2021/12/10 10:30:04;;;;;;;96.30;46.67;;;1.50;99.90;;;;;;5034332;28;20258;-66
2021/12/10 10:32:32;;;;;;;97.07;48.67;;;1.50;99.90;;;;;;5037670;28;20636;-74
2021/12/10 10:35:04;;;;;;;95.73;45.00;;;1.60;99.90;;;;;;5038421;28;20292;-74
2021/12/10 10:37:31;;;;;;;101.00;45.10;;;1.60;99.90;;;;;;5030190;28;21045;-74
2021/12/10 10:39:57;;;;;;;77.93;41.90;;;1.60;99.90;;;;;;5035583;28;20185;-65
2021/12/10 10:42:25;;;;;;;93.93;45.47;;;1.50;99.90;;;;;;5040593;28;20200;-65
2021/12/10 10:44:53;;;;;;;93.20;43.90;;;1.50;99.90;;;;;;5036318;28;20179;-65
2021/12/10 10:47:22;;;;;;;87.37;44.73;;;1.50;99.90;;;;;;5034110;28;20199;-65
2021/12/10 10:49:52;;;;;;;95.87;47.30;;;1.50;99.90;;;;;;5032494;28;20671;-65
2021/12/10 10:52:31;;;;;;;96.40;48.20;;;1.60;99.90;;;;;;5029549;28;20748;-65
2021/12/10 10:55:08;;;;;;;85.93;44.77;;;1.60;99.90;;;;;;5036573;28;20175;-74
2021/12/10 10:57:34;;;;;;;86.40;42.40;;;1.70;99.90;;;;;;5038242;28;20736;-75
2021/12/10 11:00:14;;;;;;;99.20;44.93;;;1.70;99.90;;;;;;5035003;28;20316;-76
2021/12/10 11:02:50;;;;;;;80.47;43.13;;;1.70;99.90;;;;;;5031950;28;20233;-76
2021/12/10 11:05:17;;;;;;;84.60;41.60;;;1.80;99.90;;;;;;5031818;28;20178;-75
2021/12/10 11:07:52;;;;;;;84.57;43.47;;;1.80;99.90;;;;;;5048950;28;20198;-73
2021/12/10 11:10:31;;;;;;;81.17;41.73;;;1.80;99.90;;;;;;5050066;28;20201;-74
2021/12/10 11:13:11;;;;;;;85.00;41.13;;;1.80;99.90;;;;;;5046933;28;21050;-73
2021/12/10 11:15:39;;;;;;;81.87;40.67;;;1.80;99.90;;;;;;5038254;28;20233;-73
2021/12/10 11:18:05;;;;;;;78.43;39.57;;;1.80;99.90;;;;;;5033695;28;20692;-75
2021/12/10 11:20:36;;;;;;;87.17;40.40;;;1.80;99.90;;;;;;5039946;28;20214;-73
2021/12/10 11:23:08;;;;;;;73.43;37.23;;;1.70;99.90;;;;;;5032583;28;20553;-75
2021/12/10 11:25:48;;;;;;;81.53;39.50;;;1.70;99.90;;;;;;5040081;28;20225;-74
2021/12/10 11:28:42;;;;;;;71.30;39.47;;;1.60;99.90;;;;;;5035889;28;20200;-71
2021/12/10 11:31:15;;;;;;;71.23;36.27;;;1.60;99.90;;;;;;5036629;28;20205;-75
2021/12/10 11:33:49;;;;;;;83.00;39.97;;;1.60;99.90;;;;;;5039880;28;20217;-78
2021/12/10 11:36:22;;;;;;;80.33;38.83;;;1.60;99.90;;;;;;5047235;28;20279;-81
2021/12/10 11:38:51;;;;;;;75.30;38.30;;;1.60;99.90;;;;;;5027680;28;20200;-76
2021/12/10 11:41:23;;;;;;;79.93;39.17;;;1.60;99.90;;;;;;5065912;28;20182;-73
2021/12/10 11:44:17;;;;;;;90.33;42.60;;;1.70;99.90;;;;;;5024491;28;20683;-74
2021/12/10 11:49:40;;;;;;;81.23;38.47;;;1.80;99.90;;;;;;5036073;28;20194;-73
2021/12/10 11:52:20;;;;;;;89.30;40.70;;;1.80;99.90;;;;;;5041989;28;20636;-75
2021/12/10 11:54:53;;;;;;;83.70;40.13;;;1.80;99.90;;;;;;5033374;28;20236;-74
2021/12/10 11:57:21;;;;;;;76.10;37.63;;;1.80;99.90;;;;;;5055462;28;20228;-70
2021/12/10 11:59:53;;;;;;;73.67;38.03;;;1.80;99.90;;;;;;5038559;28;20290;-71
2021/12/10 12:02:26;;;;;;;83.33;39.30;;;1.70;99.90;;;;;;5028894;28;20209;-71
2021/12/10 12:04:53;;;;;;;86.83;39.13;;;1.70;99.90;;;;;;5037652;28;20195;-73
2021/12/10 12:07:30;;;;;;;87.27;39.90;;;1.80;99.90;;;;;;5050674;28;20214;-73
2021/12/10 12:10:20;;;;;;;83.07;41.93;;;1.90;99.90;;;;;;5045292;28;20676;-74
2021/12/10 12:12:52;;;;;;;90.37;42.33;;;1.90;99.90;;;;;;5034998;28;20219;-73
2021/12/10 12:15:20;;;;;;;89.47;42.07;;;1.80;99.90;;;;;;5056374;28;20242;-64
2021/12/10 12:17:50;;;;;;;89.17;38.53;;;1.80;99.90;;;;;;5047533;28;20202;-64
2021/12/10 12:20:43;;;;;;;90.33;42.07;;;1.80;99.90;;;;;;5042297;28;20197;-63
2021/12/10 12:24:57;;;;;;;86.60;40.67;;;1.80;99.90;;;;;;5034682;28;20199;-64
2021/12/10 12:26:19;;;;;;;85.10;39.43;;;1.80;99.90;;;;;;5025564;28;20215;-64
2021/12/10 12:28:51;;;;;;;80.13;38.67;;;1.80;99.90;;;;;;5030252;28;20257;-63
2021/12/10 12:31:27;;;;;;;94.53;43.17;;;1.80;99.90;;;;;;5025356;28;20203;-62
2021/12/10 12:34:15;;;;;;;86.70;41.77;;;1.70;99.90;;;;;;5037186;28;20229;-63
2021/12/10 12:36:49;;;;;;;95.60;40.73;;;1.70;99.90;;;;;;5045392;28;20187;-63
2021/12/10 12:39:39;;;;;;;83.63;41.30;;;1.70;99.90;;;;;;5045318;28;20196;-64
2021/12/10 12:42:28;;;;;;;79.13;35.50;;;1.80;99.90;;;;;;5023661;28;20718;-63
2021/12/10 12:44:58;;;;;;;87.23;40.57;;;1.80;99.90;;;;;;5024821;28;20188;-64
2021/12/10 12:47:38;;;;;;;83.97;38.00;;;1.90;99.90;;;;;;5051837;28;20303;-64
2021/12/10 12:50:11;;;;;;;74.43;36.50;;;1.90;99.90;;;;;;5035503;28;20188;-64
2021/12/10 12:52:50;;;;;;;90.07;40.50;;;1.90;99.90;;;;;;5036186;28;20578;-63